sensor_id;sensor_type;location;lat;lon;timestamp;P1;durP1;ratioP1;P2;durP2;ratioP2
47367;SDS011;34646;47.964;7.982;2023-04-03T00:05:34;6.90;;;3.03;;
47367;SDS011;34646;47.964;7.982;2023-04-03T00:11:35;7.60;;;2.63;;
47367;SDS011;34646;47.964;7.982;2023-04-03T00:17:36;6.20;;;2.73;;
47367;SDS011;34646;47.964;7.982;2023-04-03T00:23:37;5.80;;;2.67;;
47367;SDS011;34646;47.964;7.982;2023-04-03T00:29:37;6.67;;;2.87;;
47367;SDS011;34646;47.964;7.982;2023-04-03T00:35:38;5.77;;;2.47;;
47367;SDS011;34646;47.964;7.982;2023-04-03T00:41:39;9.30;;;3.23;;
47367;SDS011;34646;47.964;7.982;2023-04-03T00:47:40;7.77;;;3.00;;
47367;SDS011;34646;47.964;7.982;2023-04-03T00:53:44;6.13;;;2.60;;
47367;SDS011;34646;47.964;7.982;2023-04-03T00:59:52;6.53;;;2.70;;
47367;SDS011;34646;47.964;7.982;2023-04-03T01:05:57;7.38;;;2.72;;
47367;SDS011;34646;47.964;7.982;2023-04-03T01:12:18;6.47;;;2.67;;
47367;SDS011;34646;47.964;7.982;2023-04-03T01:18:22;6.43;;;2.80;;
47367;SDS011;34646;47.964;7.982;2023-04-03T01:24:32;6.82;;;2.55;;
47367;SDS011;34646;47.964;7.982;2023-04-03T01:30:46;6.22;;;2.45;;
47367;SDS011;34646;47.964;7.982;2023-04-03T01:36:53;6.97;;;2.50;;
47367;SDS011;34646;47.964;7.982;2023-04-03T01:42:55;7.38;;;2.40;;
47367;SDS011;34646;47.964;7.982;2023-04-03T01:48:56;5.40;;;2.13;;
47367;SDS011;34646;47.964;7.982;2023-04-03T01:54:57;5.67;;;2.23;;
47367;SDS011;34646;47.964;7.982;2023-04-03T02:00:58;6.27;;;2.53;;
47367;SDS011;34646;47.964;7.982;2023-04-03T02:07:00;6.28;;;2.50;;
47367;SDS011;34646;47.964;7.982;2023-04-03T02:13:01;5.90;;;2.13;;
47367;SDS011;34646;47.964;7.982;2023-04-03T02:19:02;5.13;;;2.22;;
47367;SDS011;34646;47.964;7.982;2023-04-03T02:25:04;4.68;;;2.15;;
47367;SDS011;34646;47.964;7.982;2023-04-03T02:31:05;4.57;;;1.90;;
47367;SDS011;34646;47.964;7.982;2023-04-03T02:43:07;6.45;;;2.47;;
47367;SDS011;34646;47.964;7.982;2023-04-03T02:49:10;4.43;;;2.00;;
47367;SDS011;34646;47.964;7.982;2023-04-03T02:55:13;5.87;;;2.50;;
47367;SDS011;34646;47.964;7.982;2023-04-03T03:01:15;4.43;;;2.38;;
47367;SDS011;34646;47.964;7.982;2023-04-03T03:07:16;3.53;;;1.80;;
47367;SDS011;34646;47.964;7.982;2023-04-03T03:13:16;5.23;;;2.27;;
47367;SDS011;34646;47.964;7.982;2023-04-03T03:19:17;5.43;;;2.20;;
47367;SDS011;34646;47.964;7.982;2023-04-03T03:25:18;4.87;;;2.33;;
47367;SDS011;34646;47.964;7.982;2023-04-03T03:31:19;5.97;;;2.13;;
47367;SDS011;34646;47.964;7.982;2023-04-03T03:37:20;4.50;;;2.05;;
47367;SDS011;34646;47.964;7.982;2023-04-03T03:43:21;3.53;;;1.93;;
47367;SDS011;34646;47.964;7.982;2023-04-03T03:49:24;4.28;;;2.13;;
47367;SDS011;34646;47.964;7.982;2023-04-03T03:55:25;4.43;;;1.73;;
47367;SDS011;34646;47.964;7.982;2023-04-03T04:01:28;4.70;;;1.95;;
47367;SDS011;34646;47.964;7.982;2023-04-03T04:07:29;4.38;;;1.98;;
47367;SDS011;34646;47.964;7.982;2023-04-03T04:19:32;4.03;;;1.80;;
47367;SDS011;34646;47.964;7.982;2023-04-03T04:25:33;3.93;;;1.70;;
47367;SDS011;34646;47.964;7.982;2023-04-03T04:31:34;5.10;;;1.83;;
47367;SDS011;34646;47.964;7.982;2023-04-03T04:37:35;3.47;;;1.60;;
47367;SDS011;34646;47.964;7.982;2023-04-03T04:43:36;4.30;;;1.83;;
47367;SDS011;34646;47.964;7.982;2023-04-03T04:49:38;4.20;;;1.90;;
47367;SDS011;34646;47.964;7.982;2023-04-03T04:55:39;3.30;;;1.33;;
47367;SDS011;34646;47.964;7.982;2023-04-03T05:01:40;3.70;;;1.53;;
47367;SDS011;34646;47.964;7.982;2023-04-03T05:07:46;7.35;;;2.10;;
47367;SDS011;34646;47.964;7.982;2023-04-03T05:13:47;3.40;;;1.73;;
47367;SDS011;34646;47.964;7.982;2023-04-03T05:19:48;2.80;;;1.20;;
47367;SDS011;34646;47.964;7.982;2023-04-03T05:25:49;3.90;;;1.80;;
47367;SDS011;34646;47.964;7.982;2023-04-03T05:31:51;3.35;;;1.60;;
47367;SDS011;34646;47.964;7.982;2023-04-03T05:37:52;4.13;;;1.90;;
47367;SDS011;34646;47.964;7.982;2023-04-03T05:43:53;3.83;;;1.63;;
47367;SDS011;34646;47.964;7.982;2023-04-03T05:49:56;3.88;;;1.90;;
47367;SDS011;34646;47.964;7.982;2023-04-03T05:55:57;5.27;;;1.87;;
47367;SDS011;34646;47.964;7.982;2023-04-03T06:07:59;4.97;;;2.28;;
47367;SDS011;34646;47.964;7.982;2023-04-03T06:14:00;7.13;;;2.20;;
47367;SDS011;34646;47.964;7.982;2023-04-03T06:20:01;4.13;;;2.03;;
47367;SDS011;34646;47.964;7.982;2023-04-03T06:26:04;7.28;;;2.80;;
47367;SDS011;34646;47.964;7.982;2023-04-03T06:38:06;7.13;;;2.92;;
47367;SDS011;34646;47.964;7.982;2023-04-03T06:44:09;6.05;;;2.33;;
47367;SDS011;34646;47.964;7.982;2023-04-03T06:50:11;4.95;;;2.30;;
47367;SDS011;34646;47.964;7.982;2023-04-03T06:56:14;5.93;;;2.65;;
47367;SDS011;34646;47.964;7.982;2023-04-03T07:02:15;10.07;;;2.80;;
47367;SDS011;34646;47.964;7.982;2023-04-03T07:08:16;6.67;;;2.60;;
47367;SDS011;34646;47.964;7.982;2023-04-03T07:14:18;6.97;;;2.07;;
47367;SDS011;34646;47.964;7.982;2023-04-03T07:20:20;5.70;;;2.10;;
47367;SDS011;34646;47.964;7.982;2023-04-03T07:26:22;5.20;;;1.93;;
47367;SDS011;34646;47.964;7.982;2023-04-03T07:38:23;6.60;;;2.40;;
47367;SDS011;34646;47.964;7.982;2023-04-03T07:44:24;6.97;;;1.90;;
47367;SDS011;34646;47.964;7.982;2023-04-03T07:56:27;4.97;;;2.00;;
47367;SDS011;34646;47.964;7.982;2023-04-03T08:02:28;3.40;;;1.77;;
47367;SDS011;34646;47.964;7.982;2023-04-03T08:08:29;6.80;;;1.47;;
47367;SDS011;34646;47.964;7.982;2023-04-03T08:14:30;3.30;;;1.63;;
47367;SDS011;34646;47.964;7.982;2023-04-03T08:20:34;3.72;;;1.60;;
47367;SDS011;34646;47.964;7.982;2023-04-03T08:26:35;3.80;;;1.87;;
47367;SDS011;34646;47.964;7.982;2023-04-03T08:32:36;5.67;;;1.43;;
47367;SDS011;34646;47.964;7.982;2023-04-03T08:38:37;3.30;;;1.95;;
47367;SDS011;34646;47.964;7.982;2023-04-03T08:50:46;5.47;;;1.40;;
47367;SDS011;34646;47.964;7.982;2023-04-03T08:56:50;5.72;;;1.80;;
47367;SDS011;34646;47.964;7.982;2023-04-03T09:02:55;5.10;;;1.65;;
47367;SDS011;34646;47.964;7.982;2023-04-03T09:09:15;4.65;;;2.00;;
47367;SDS011;34646;47.964;7.982;2023-04-03T09:15:28;7.18;;;1.40;;
47367;SDS011;34646;47.964;7.982;2023-04-03T09:21:31;6.70;;;1.43;;
47367;SDS011;34646;47.964;7.982;2023-04-03T09:27:37;7.72;;;1.70;;
47367;SDS011;34646;47.964;7.982;2023-04-03T09:33:37;7.27;;;1.50;;
47367;SDS011;34646;47.964;7.982;2023-04-03T09:39:49;54.42;;;6.95;;
47367;SDS011;34646;47.964;7.982;2023-04-03T09:45:53;22.65;;;3.85;;
47367;SDS011;34646;47.964;7.982;2023-04-03T09:58:04;18.75;;;2.80;;
47367;SDS011;34646;47.964;7.982;2023-04-03T10:04:23;15.35;;;3.20;;
47367;SDS011;34646;47.964;7.982;2023-04-03T10:10:24;25.17;;;3.50;;
47367;SDS011;34646;47.964;7.982;2023-04-03T10:16:27;21.85;;;3.15;;
47367;SDS011;34646;47.964;7.982;2023-04-03T10:22:40;21.17;;;3.45;;
47367;SDS011;34646;47.964;7.982;2023-04-03T10:34:45;15.27;;;2.40;;
47367;SDS011;34646;47.964;7.982;2023-04-03T10:46:49;13.80;;;2.70;;
47367;SDS011;34646;47.964;7.982;2023-04-03T10:59:23;10.40;;;1.90;;
47367;SDS011;34646;47.964;7.982;2023-04-03T11:05:52;12.05;;;2.55;;
47367;SDS011;34646;47.964;7.982;2023-04-03T11:11:56;15.05;;;2.45;;
47367;SDS011;34646;47.964;7.982;2023-04-03T11:18:08;12.32;;;2.03;;
47367;SDS011;34646;47.964;7.982;2023-04-03T11:24:17;11.15;;;2.38;;
47367;SDS011;34646;47.964;7.982;2023-04-03T11:36:49;11.70;;;2.72;;
47367;SDS011;34646;47.964;7.982;2023-04-03T11:49:00;6.30;;;1.88;;
47367;SDS011;34646;47.964;7.982;2023-04-03T11:55:00;9.27;;;2.57;;
47367;SDS011;34646;47.964;7.982;2023-04-03T12:07:43;6.85;;;1.70;;
47367;SDS011;34646;47.964;7.982;2023-04-03T12:19:56;8.63;;;1.85;;
47367;SDS011;34646;47.964;7.982;2023-04-03T12:38:56;13.32;;;1.60;;
47367;SDS011;34646;47.964;7.982;2023-04-03T12:45:23;7.05;;;1.30;;
47367;SDS011;34646;47.964;7.982;2023-04-03T12:51:39;4.23;;;1.77;;
47367;SDS011;34646;47.964;7.982;2023-04-03T12:57:42;9.10;;;1.65;;
47367;SDS011;34646;47.964;7.982;2023-04-03T13:03:44;5.70;;;1.30;;
47367;SDS011;34646;47.964;7.982;2023-04-03T13:09:47;3.88;;;1.05;;
47367;SDS011;34646;47.964;7.982;2023-04-03T13:15:56;2.65;;;1.45;;
47367;SDS011;34646;47.964;7.982;2023-04-03T13:22:07;3.80;;;1.20;;
47367;SDS011;34646;47.964;7.982;2023-04-03T13:28:23;5.35;;;1.38;;
47367;SDS011;34646;47.964;7.982;2023-04-03T13:34:26;5.72;;;1.88;;
47367;SDS011;34646;47.964;7.982;2023-04-03T13:40:29;6.50;;;1.58;;
47367;SDS011;34646;47.964;7.982;2023-04-03T13:46:30;8.73;;;1.40;;
47367;SDS011;34646;47.964;7.982;2023-04-03T13:52:33;4.23;;;1.40;;
47367;SDS011;34646;47.964;7.982;2023-04-03T14:05:05;11.35;;;2.80;;
47367;SDS011;34646;47.964;7.982;2023-04-03T14:11:15;8.25;;;2.22;;
47367;SDS011;34646;47.964;7.982;2023-04-03T14:17:20;5.75;;;1.95;;
47367;SDS011;34646;47.964;7.982;2023-04-03T14:23:24;7.38;;;2.05;;
47367;SDS011;34646;47.964;7.982;2023-04-03T14:29:24;5.33;;;1.77;;
47367;SDS011;34646;47.964;7.982;2023-04-03T14:35:26;10.23;;;1.50;;
47367;SDS011;34646;47.964;7.982;2023-04-03T14:47:28;4.75;;;1.42;;
47367;SDS011;34646;47.964;7.982;2023-04-03T14:53:30;4.85;;;1.80;;
47367;SDS011;34646;47.964;7.982;2023-04-03T14:59:32;6.20;;;1.50;;
47367;SDS011;34646;47.964;7.982;2023-04-03T15:05:33;5.30;;;1.70;;
47367;SDS011;34646;47.964;7.982;2023-04-03T15:11:35;4.50;;;2.03;;
47367;SDS011;34646;47.964;7.982;2023-04-03T15:17:36;6.87;;;1.70;;
47367;SDS011;34646;47.964;7.982;2023-04-03T15:23:37;9.57;;;2.30;;
47367;SDS011;34646;47.964;7.982;2023-04-03T15:29:38;6.80;;;2.47;;
47367;SDS011;34646;47.964;7.982;2023-04-03T15:35:41;7.80;;;1.80;;
47367;SDS011;34646;47.964;7.982;2023-04-03T15:41:42;41.15;;;2.78;;
47367;SDS011;34646;47.964;7.982;2023-04-03T15:47:43;34.83;;;2.83;;
47367;SDS011;34646;47.964;7.982;2023-04-03T15:53:43;21.10;;;2.70;;
47367;SDS011;34646;47.964;7.982;2023-04-03T15:59:44;45.90;;;3.40;;
47367;SDS011;34646;47.964;7.982;2023-04-03T16:05:45;30.60;;;4.07;;
47367;SDS011;34646;47.964;7.982;2023-04-03T16:11:46;17.55;;;2.80;;
47367;SDS011;34646;47.964;7.982;2023-04-03T16:17:47;24.97;;;3.03;;
47367;SDS011;34646;47.964;7.982;2023-04-03T16:23:48;24.98;;;2.65;;
47367;SDS011;34646;47.964;7.982;2023-04-03T16:29:49;16.57;;;2.33;;
47367;SDS011;34646;47.964;7.982;2023-04-03T16:35:50;16.37;;;2.63;;
47367;SDS011;34646;47.964;7.982;2023-04-03T16:41:52;18.38;;;2.15;;
47367;SDS011;34646;47.964;7.982;2023-04-03T16:47:52;16.93;;;2.20;;
47367;SDS011;34646;47.964;7.982;2023-04-03T16:53:53;13.93;;;2.70;;
47367;SDS011;34646;47.964;7.982;2023-04-03T16:59:54;12.53;;;1.80;;
47367;SDS011;34646;47.964;7.982;2023-04-03T17:05:55;18.37;;;2.87;;
47367;SDS011;34646;47.964;7.982;2023-04-03T17:11:56;24.47;;;2.67;;
47367;SDS011;34646;47.964;7.982;2023-04-03T17:17:57;36.97;;;2.87;;
47367;SDS011;34646;47.964;7.982;2023-04-03T17:24:02;20.43;;;2.13;;
47367;SDS011;34646;47.964;7.982;2023-04-03T17:30:07;17.27;;;2.15;;
47367;SDS011;34646;47.964;7.982;2023-04-03T17:36:08;18.77;;;2.07;;
47367;SDS011;34646;47.964;7.982;2023-04-03T17:42:09;20.43;;;2.00;;
47367;SDS011;34646;47.964;7.982;2023-04-03T17:48:10;19.27;;;3.10;;
47367;SDS011;34646;47.964;7.982;2023-04-03T17:54:11;16.50;;;1.87;;
47367;SDS011;34646;47.964;7.982;2023-04-03T18:00:11;11.77;;;1.97;;
47367;SDS011;34646;47.964;7.982;2023-04-03T18:06:15;16.23;;;1.75;;
47367;SDS011;34646;47.964;7.982;2023-04-03T18:12:18;11.35;;;1.70;;
47367;SDS011;34646;47.964;7.982;2023-04-03T18:18:19;16.92;;;2.00;;
47367;SDS011;34646;47.964;7.982;2023-04-03T18:24:20;12.27;;;1.80;;
47367;SDS011;34646;47.964;7.982;2023-04-03T18:30:22;11.82;;;1.80;;
47367;SDS011;34646;47.964;7.982;2023-04-03T18:36:25;5.88;;;1.40;;
47367;SDS011;34646;47.964;7.982;2023-04-03T18:42:27;12.60;;;1.77;;
47367;SDS011;34646;47.964;7.982;2023-04-03T18:48:28;16.58;;;2.00;;
47367;SDS011;34646;47.964;7.982;2023-04-03T18:54:29;9.47;;;1.70;;
47367;SDS011;34646;47.964;7.982;2023-04-03T19:00:30;11.70;;;2.17;;
47367;SDS011;34646;47.964;7.982;2023-04-03T19:06:33;7.45;;;1.38;;
47367;SDS011;34646;47.964;7.982;2023-04-03T19:12:34;6.90;;;1.50;;
47367;SDS011;34646;47.964;7.982;2023-04-03T19:18:35;10.43;;;2.77;;
47367;SDS011;34646;47.964;7.982;2023-04-03T19:24:36;11.20;;;1.50;;
47367;SDS011;34646;47.964;7.982;2023-04-03T19:30:37;5.40;;;1.63;;
47367;SDS011;34646;47.964;7.982;2023-04-03T19:36:37;3.00;;;1.17;;
47367;SDS011;34646;47.964;7.982;2023-04-03T19:42:38;10.83;;;1.97;;
47367;SDS011;34646;47.964;7.982;2023-04-03T19:48:41;6.13;;;1.73;;
47367;SDS011;34646;47.964;7.982;2023-04-03T19:54:42;5.40;;;1.40;;
47367;SDS011;34646;47.964;7.982;2023-04-03T20:00:43;8.73;;;1.93;;
47367;SDS011;34646;47.964;7.982;2023-04-03T20:06:43;7.20;;;1.10;;
47367;SDS011;34646;47.964;7.982;2023-04-03T20:12:45;4.93;;;1.33;;
47367;SDS011;34646;47.964;7.982;2023-04-03T20:18:46;5.40;;;1.50;;
47367;SDS011;34646;47.964;7.982;2023-04-03T20:24:47;6.53;;;1.10;;
47367;SDS011;34646;47.964;7.982;2023-04-03T20:30:49;6.63;;;1.20;;
47367;SDS011;34646;47.964;7.982;2023-04-03T20:36:51;2.88;;;1.00;;
47367;SDS011;34646;47.964;7.982;2023-04-03T20:42:53;5.20;;;1.20;;
47367;SDS011;34646;47.964;7.982;2023-04-03T20:48:54;3.17;;;1.10;;
47367;SDS011;34646;47.964;7.982;2023-04-03T20:54:54;3.80;;;1.30;;
47367;SDS011;34646;47.964;7.982;2023-04-03T21:00:55;8.03;;;0.90;;
47367;SDS011;34646;47.964;7.982;2023-04-03T21:20:17;2.10;;;0.90;;
47367;SDS011;34646;47.964;7.982;2023-04-03T21:26:17;3.50;;;1.57;;
47367;SDS011;34646;47.964;7.982;2023-04-03T21:32:20;3.55;;;0.88;;
47367;SDS011;34646;47.964;7.982;2023-04-03T21:38:21;2.57;;;0.97;;
47367;SDS011;34646;47.964;7.982;2023-04-03T21:44:22;2.67;;;1.03;;
47367;SDS011;34646;47.964;7.982;2023-04-03T21:50:23;2.50;;;0.95;;
47367;SDS011;34646;47.964;7.982;2023-04-03T21:56:24;3.20;;;1.02;;
47367;SDS011;34646;47.964;7.982;2023-04-03T22:02:25;4.70;;;1.00;;
47367;SDS011;34646;47.964;7.982;2023-04-03T22:08:27;2.43;;;0.83;;
47367;SDS011;34646;47.964;7.982;2023-04-03T22:20:29;1.90;;;1.03;;
47367;SDS011;34646;47.964;7.982;2023-04-03T22:26:30;2.50;;;1.00;;
47367;SDS011;34646;47.964;7.982;2023-04-03T22:32:31;4.17;;;1.20;;
47367;SDS011;34646;47.964;7.982;2023-04-03T22:38:31;4.10;;;1.00;;
47367;SDS011;34646;47.964;7.982;2023-04-03T22:44:33;4.15;;;1.00;;
47367;SDS011;34646;47.964;7.982;2023-04-03T22:50:33;2.00;;;0.90;;
47367;SDS011;34646;47.964;7.982;2023-04-03T22:56:36;2.72;;;0.93;;
47367;SDS011;34646;47.964;7.982;2023-04-03T23:02:37;2.57;;;1.00;;
47367;SDS011;34646;47.964;7.982;2023-04-03T23:08:37;2.03;;;1.23;;
47367;SDS011;34646;47.964;7.982;2023-04-03T23:14:39;1.55;;;0.80;;
47367;SDS011;34646;47.964;7.982;2023-04-03T23:20:40;2.30;;;0.90;;
47367;SDS011;34646;47.964;7.982;2023-04-03T23:26:40;3.47;;;1.00;;
47367;SDS011;34646;47.964;7.982;2023-04-03T23:32:41;2.33;;;0.93;;
47367;SDS011;34646;47.964;7.982;2023-04-03T23:38:42;2.10;;;0.97;;
47367;SDS011;34646;47.964;7.982;2023-04-03T23:44:43;1.90;;;1.10;;
47367;SDS011;34646;47.964;7.982;2023-04-03T23:50:44;1.63;;;0.90;;
47367;SDS011;34646;47.964;7.982;2023-04-03T23:56:45;1.83;;;0.80;;
